sensor_id;sensor_type;location;lat;lon;timestamp;P1;durP1;ratioP1;P2;durP2;ratioP2
19059;SDS011;9663;48.996;8.334;2023-06-19T00:02:16;4.97;;;3.00;;
19059;SDS011;9663;48.996;8.334;2023-06-19T00:04:42;5.00;;;3.20;;
19059;SDS011;9663;48.996;8.334;2023-06-19T00:07:07;5.75;;;3.05;;
19059;SDS011;9663;48.996;8.334;2023-06-19T00:09:33;4.78;;;2.83;;
19059;SDS011;9663;48.996;8.334;2023-06-19T00:11:58;4.40;;;2.75;;
19059;SDS011;9663;48.996;8.334;2023-06-19T00:14:26;4.25;;;2.75;;
19059;SDS011;9663;48.996;8.334;2023-06-19T00:16:52;4.93;;;2.80;;
19059;SDS011;9663;48.996;8.334;2023-06-19T00:19:17;5.05;;;3.15;;
19059;SDS011;9663;48.996;8.334;2023-06-19T00:21:43;6.15;;;3.28;;
19059;SDS011;9663;48.996;8.334;2023-06-19T00:24:09;5.15;;;3.17;;
19059;SDS011;9663;48.996;8.334;2023-06-19T00:26:36;6.53;;;2.95;;
19059;SDS011;9663;48.996;8.334;2023-06-19T00:29:01;4.97;;;3.05;;
19059;SDS011;9663;48.996;8.334;2023-06-19T00:31:27;6.93;;;3.58;;
19059;SDS011;9663;48.996;8.334;2023-06-19T00:33:53;5.38;;;3.10;;
19059;SDS011;9663;48.996;8.334;2023-06-19T00:36:19;5.43;;;3.00;;
19059;SDS011;9663;48.996;8.334;2023-06-19T00:38:46;4.55;;;2.65;;
19059;SDS011;9663;48.996;8.334;2023-06-19T00:41:13;4.78;;;2.53;;
19059;SDS011;9663;48.996;8.334;2023-06-19T00:43:40;4.40;;;2.47;;
19059;SDS011;9663;48.996;8.334;2023-06-19T00:46:05;6.57;;;2.20;;
19059;SDS011;9663;48.996;8.334;2023-06-19T00:48:31;4.45;;;2.03;;
19059;SDS011;9663;48.996;8.334;2023-06-19T00:50:59;5.78;;;2.35;;
19059;SDS011;9663;48.996;8.334;2023-06-19T00:53:25;4.10;;;2.38;;
19059;SDS011;9663;48.996;8.334;2023-06-19T00:55:52;4.60;;;2.45;;
19059;SDS011;9663;48.996;8.334;2023-06-19T00:58:21;4.43;;;2.08;;
19059;SDS011;9663;48.996;8.334;2023-06-19T01:00:48;3.95;;;2.20;;
19059;SDS011;9663;48.996;8.334;2023-06-19T01:03:14;4.15;;;2.10;;
19059;SDS011;9663;48.996;8.334;2023-06-19T01:05:41;4.30;;;2.10;;
19059;SDS011;9663;48.996;8.334;2023-06-19T01:10:40;4.15;;;1.80;;
19059;SDS011;9663;48.996;8.334;2023-06-19T01:15:56;3.10;;;1.50;;
19059;SDS011;9663;48.996;8.334;2023-06-19T01:18:22;3.65;;;1.48;;
19059;SDS011;9663;48.996;8.334;2023-06-19T01:20:50;2.55;;;1.20;;
19059;SDS011;9663;48.996;8.334;2023-06-19T01:23:15;2.55;;;1.20;;
19059;SDS011;9663;48.996;8.334;2023-06-19T01:25:41;3.00;;;1.30;;
19059;SDS011;9663;48.996;8.334;2023-06-19T01:28:07;3.38;;;1.20;;
19059;SDS011;9663;48.996;8.334;2023-06-19T01:30:37;4.38;;;1.42;;
19059;SDS011;9663;48.996;8.334;2023-06-19T01:35:47;3.50;;;1.42;;
19059;SDS011;9663;48.996;8.334;2023-06-19T01:38:15;2.70;;;1.30;;
19059;SDS011;9663;48.996;8.334;2023-06-19T01:40:42;3.50;;;1.40;;
19059;SDS011;9663;48.996;8.334;2023-06-19T01:43:08;4.43;;;1.38;;
19059;SDS011;9663;48.996;8.334;2023-06-19T01:45:35;3.22;;;1.50;;
19059;SDS011;9663;48.996;8.334;2023-06-19T01:48:02;3.45;;;1.40;;
19059;SDS011;9663;48.996;8.334;2023-06-19T01:50:28;3.42;;;1.30;;
19059;SDS011;9663;48.996;8.334;2023-06-19T01:52:53;3.03;;;1.38;;
19059;SDS011;9663;48.996;8.334;2023-06-19T01:55:19;3.30;;;1.40;;
19059;SDS011;9663;48.996;8.334;2023-06-19T01:57:45;3.97;;;1.58;;
19059;SDS011;9663;48.996;8.334;2023-06-19T02:00:11;3.35;;;1.35;;
19059;SDS011;9663;48.996;8.334;2023-06-19T02:02:37;3.22;;;1.30;;
19059;SDS011;9663;48.996;8.334;2023-06-19T02:05:03;2.95;;;1.25;;
19059;SDS011;9663;48.996;8.334;2023-06-19T02:07:29;3.05;;;1.25;;
19059;SDS011;9663;48.996;8.334;2023-06-19T02:09:56;3.58;;;1.48;;
19059;SDS011;9663;48.996;8.334;2023-06-19T02:12:22;3.17;;;1.40;;
19059;SDS011;9663;48.996;8.334;2023-06-19T02:14:48;3.30;;;1.35;;
19059;SDS011;9663;48.996;8.334;2023-06-19T02:17:13;3.42;;;1.25;;
19059;SDS011;9663;48.996;8.334;2023-06-19T02:19:39;3.42;;;1.42;;
19059;SDS011;9663;48.996;8.334;2023-06-19T02:22:05;2.83;;;1.30;;
19059;SDS011;9663;48.996;8.334;2023-06-19T02:24:31;3.35;;;1.55;;
19059;SDS011;9663;48.996;8.334;2023-06-19T02:26:57;2.88;;;1.23;;
19059;SDS011;9663;48.996;8.334;2023-06-19T02:29:23;2.83;;;1.20;;
19059;SDS011;9663;48.996;8.334;2023-06-19T02:31:50;2.92;;;1.30;;
19059;SDS011;9663;48.996;8.334;2023-06-19T02:34:16;3.00;;;1.25;;
19059;SDS011;9663;48.996;8.334;2023-06-19T02:36:42;2.50;;;1.15;;
19059;SDS011;9663;48.996;8.334;2023-06-19T02:39:08;3.45;;;1.60;;
19059;SDS011;9663;48.996;8.334;2023-06-19T02:41:34;3.05;;;1.30;;
19059;SDS011;9663;48.996;8.334;2023-06-19T02:44:00;2.92;;;1.17;;
19059;SDS011;9663;48.996;8.334;2023-06-19T02:46:26;3.50;;;1.60;;
19059;SDS011;9663;48.996;8.334;2023-06-19T02:48:52;4.22;;;1.35;;
19059;SDS011;9663;48.996;8.334;2023-06-19T02:51:18;3.30;;;1.30;;
19059;SDS011;9663;48.996;8.334;2023-06-19T02:53:43;3.35;;;1.40;;
19059;SDS011;9663;48.996;8.334;2023-06-19T02:56:09;3.20;;;1.25;;
19059;SDS011;9663;48.996;8.334;2023-06-19T02:58:38;2.97;;;1.45;;
19059;SDS011;9663;48.996;8.334;2023-06-19T03:01:04;3.17;;;1.38;;
19059;SDS011;9663;48.996;8.334;2023-06-19T03:03:33;2.85;;;1.20;;
19059;SDS011;9663;48.996;8.334;2023-06-19T03:06:03;3.25;;;1.48;;
19059;SDS011;9663;48.996;8.334;2023-06-19T03:08:30;2.85;;;1.30;;
19059;SDS011;9663;48.996;8.334;2023-06-19T03:11:01;6.10;;;1.50;;
19059;SDS011;9663;48.996;8.334;2023-06-19T03:13:50;4.13;;;1.50;;
19059;SDS011;9663;48.996;8.334;2023-06-19T03:16:17;2.78;;;1.25;;
19059;SDS011;9663;48.996;8.334;2023-06-19T03:18:43;3.10;;;1.40;;
19059;SDS011;9663;48.996;8.334;2023-06-19T03:21:10;3.33;;;1.50;;
19059;SDS011;9663;48.996;8.334;2023-06-19T03:23:36;3.25;;;1.52;;
19059;SDS011;9663;48.996;8.334;2023-06-19T03:26:02;3.50;;;1.58;;
19059;SDS011;9663;48.996;8.334;2023-06-19T03:28:28;3.78;;;1.60;;
19059;SDS011;9663;48.996;8.334;2023-06-19T03:30:54;3.30;;;1.65;;
19059;SDS011;9663;48.996;8.334;2023-06-19T03:33:20;3.78;;;1.83;;
19059;SDS011;9663;48.996;8.334;2023-06-19T03:35:46;3.20;;;1.58;;
19059;SDS011;9663;48.996;8.334;2023-06-19T03:38:11;3.40;;;1.70;;
19059;SDS011;9663;48.996;8.334;2023-06-19T03:40:37;5.22;;;1.85;;
19059;SDS011;9663;48.996;8.334;2023-06-19T03:43:03;3.08;;;1.50;;
19059;SDS011;9663;48.996;8.334;2023-06-19T03:45:28;3.70;;;1.70;;
19059;SDS011;9663;48.996;8.334;2023-06-19T03:47:54;3.47;;;1.70;;
19059;SDS011;9663;48.996;8.334;2023-06-19T03:50:20;4.20;;;1.73;;
19059;SDS011;9663;48.996;8.334;2023-06-19T03:52:45;3.38;;;1.55;;
19059;SDS011;9663;48.996;8.334;2023-06-19T03:55:11;3.53;;;1.65;;
19059;SDS011;9663;48.996;8.334;2023-06-19T03:57:36;4.60;;;1.67;;
19059;SDS011;9663;48.996;8.334;2023-06-19T04:00:02;3.78;;;1.60;;
19059;SDS011;9663;48.996;8.334;2023-06-19T04:02:32;3.65;;;1.70;;
19059;SDS011;9663;48.996;8.334;2023-06-19T04:04:59;3.78;;;1.67;;
19059;SDS011;9663;48.996;8.334;2023-06-19T04:07:25;3.60;;;1.52;;
19059;SDS011;9663;48.996;8.334;2023-06-19T04:09:50;3.50;;;1.50;;
19059;SDS011;9663;48.996;8.334;2023-06-19T04:12:16;3.30;;;1.48;;
19059;SDS011;9663;48.996;8.334;2023-06-19T04:14:41;3.85;;;1.63;;
19059;SDS011;9663;48.996;8.334;2023-06-19T04:17:07;4.18;;;1.85;;
19059;SDS011;9663;48.996;8.334;2023-06-19T04:19:33;3.83;;;1.90;;
19059;SDS011;9663;48.996;8.334;2023-06-19T04:21:58;4.85;;;1.75;;
19059;SDS011;9663;48.996;8.334;2023-06-19T04:24:24;3.25;;;1.48;;
19059;SDS011;9663;48.996;8.334;2023-06-19T04:26:50;3.22;;;1.58;;
19059;SDS011;9663;48.996;8.334;2023-06-19T04:29:18;3.47;;;1.60;;
19059;SDS011;9663;48.996;8.334;2023-06-19T04:31:44;3.50;;;1.73;;
19059;SDS011;9663;48.996;8.334;2023-06-19T04:34:12;4.32;;;1.85;;
19059;SDS011;9663;48.996;8.334;2023-06-19T04:36:40;3.53;;;1.88;;
19059;SDS011;9663;48.996;8.334;2023-06-19T04:39:06;3.97;;;1.98;;
19059;SDS011;9663;48.996;8.334;2023-06-19T04:41:32;4.00;;;1.63;;
19059;SDS011;9663;48.996;8.334;2023-06-19T04:43:58;3.58;;;1.70;;
19059;SDS011;9663;48.996;8.334;2023-06-19T04:46:23;4.38;;;1.85;;
19059;SDS011;9663;48.996;8.334;2023-06-19T04:48:49;3.97;;;1.83;;
19059;SDS011;9663;48.996;8.334;2023-06-19T04:51:17;5.57;;;1.90;;
19059;SDS011;9663;48.996;8.334;2023-06-19T04:53:45;3.88;;;1.73;;
19059;SDS011;9663;48.996;8.334;2023-06-19T04:56:12;4.18;;;1.98;;
19059;SDS011;9663;48.996;8.334;2023-06-19T04:58:41;3.67;;;1.60;;
19059;SDS011;9663;48.996;8.334;2023-06-19T05:01:14;3.70;;;1.80;;
19059;SDS011;9663;48.996;8.334;2023-06-19T05:03:41;3.97;;;1.63;;
19059;SDS011;9663;48.996;8.334;2023-06-19T05:06:13;3.08;;;1.40;;
19059;SDS011;9663;48.996;8.334;2023-06-19T05:08:39;3.55;;;1.75;;
19059;SDS011;9663;48.996;8.334;2023-06-19T05:11:04;3.30;;;1.55;;
19059;SDS011;9663;48.996;8.334;2023-06-19T05:13:30;4.15;;;1.98;;
19059;SDS011;9663;48.996;8.334;2023-06-19T05:15:55;3.92;;;1.70;;
19059;SDS011;9663;48.996;8.334;2023-06-19T05:18:21;3.80;;;1.83;;
19059;SDS011;9663;48.996;8.334;2023-06-19T05:20:47;4.30;;;1.85;;
19059;SDS011;9663;48.996;8.334;2023-06-19T05:23:13;3.58;;;1.70;;
19059;SDS011;9663;48.996;8.334;2023-06-19T05:25:38;4.05;;;1.75;;
19059;SDS011;9663;48.996;8.334;2023-06-19T05:28:04;3.55;;;1.63;;
19059;SDS011;9663;48.996;8.334;2023-06-19T05:30:30;3.88;;;1.70;;
19059;SDS011;9663;48.996;8.334;2023-06-19T05:32:55;3.40;;;1.60;;
19059;SDS011;9663;48.996;8.334;2023-06-19T05:35:21;3.42;;;1.55;;
19059;SDS011;9663;48.996;8.334;2023-06-19T05:37:47;3.05;;;1.40;;
19059;SDS011;9663;48.996;8.334;2023-06-19T05:40:13;3.92;;;1.80;;
19059;SDS011;9663;48.996;8.334;2023-06-19T05:42:39;3.22;;;1.58;;
19059;SDS011;9663;48.996;8.334;2023-06-19T05:45:06;3.78;;;1.70;;
19059;SDS011;9663;48.996;8.334;2023-06-19T05:47:32;4.55;;;1.90;;
19059;SDS011;9663;48.996;8.334;2023-06-19T05:49:58;3.72;;;1.70;;
19059;SDS011;9663;48.996;8.334;2023-06-19T05:52:25;3.53;;;1.75;;
19059;SDS011;9663;48.996;8.334;2023-06-19T05:54:51;3.17;;;1.70;;
19059;SDS011;9663;48.996;8.334;2023-06-19T05:57:18;4.18;;;2.10;;
19059;SDS011;9663;48.996;8.334;2023-06-19T05:59:47;3.42;;;1.70;;
19059;SDS011;9663;48.996;8.334;2023-06-19T06:02:13;4.07;;;1.90;;
19059;SDS011;9663;48.996;8.334;2023-06-19T06:04:40;3.75;;;1.85;;
19059;SDS011;9663;48.996;8.334;2023-06-19T06:07:07;5.35;;;2.08;;
19059;SDS011;9663;48.996;8.334;2023-06-19T06:09:33;3.67;;;1.90;;
19059;SDS011;9663;48.996;8.334;2023-06-19T06:11:59;3.72;;;1.80;;
19059;SDS011;9663;48.996;8.334;2023-06-19T06:14:26;3.75;;;1.75;;
19059;SDS011;9663;48.996;8.334;2023-06-19T06:16:52;3.45;;;1.75;;
19059;SDS011;9663;48.996;8.334;2023-06-19T06:19:21;3.95;;;1.80;;
19059;SDS011;9663;48.996;8.334;2023-06-19T06:21:48;3.78;;;1.75;;
19059;SDS011;9663;48.996;8.334;2023-06-19T06:24:14;6.47;;;1.80;;
19059;SDS011;9663;48.996;8.334;2023-06-19T06:26:40;4.25;;;1.55;;
19059;SDS011;9663;48.996;8.334;2023-06-19T06:29:07;3.55;;;1.73;;
19059;SDS011;9663;48.996;8.334;2023-06-19T06:31:33;3.13;;;1.50;;
19059;SDS011;9663;48.996;8.334;2023-06-19T06:34:03;3.58;;;1.70;;
19059;SDS011;9663;48.996;8.334;2023-06-19T06:36:29;2.97;;;1.40;;
19059;SDS011;9663;48.996;8.334;2023-06-19T06:38:55;3.70;;;1.67;;
19059;SDS011;9663;48.996;8.334;2023-06-19T06:41:20;2.83;;;1.42;;
19059;SDS011;9663;48.996;8.334;2023-06-19T06:43:46;3.50;;;1.50;;
19059;SDS011;9663;48.996;8.334;2023-06-19T06:46:12;3.13;;;1.42;;
19059;SDS011;9663;48.996;8.334;2023-06-19T06:48:39;4.03;;;1.60;;
19059;SDS011;9663;48.996;8.334;2023-06-19T06:51:05;3.00;;;1.30;;
19059;SDS011;9663;48.996;8.334;2023-06-19T06:53:31;3.20;;;1.40;;
19059;SDS011;9663;48.996;8.334;2023-06-19T06:56:00;3.70;;;1.50;;
19059;SDS011;9663;48.996;8.334;2023-06-19T06:58:26;3.55;;;1.75;;
19059;SDS011;9663;48.996;8.334;2023-06-19T07:00:52;4.55;;;1.67;;
19059;SDS011;9663;48.996;8.334;2023-06-19T07:03:18;3.50;;;1.70;;
19059;SDS011;9663;48.996;8.334;2023-06-19T07:05:44;3.97;;;1.83;;
19059;SDS011;9663;48.996;8.334;2023-06-19T07:08:10;3.00;;;1.35;;
19059;SDS011;9663;48.996;8.334;2023-06-19T07:10:36;3.58;;;1.65;;
19059;SDS011;9663;48.996;8.334;2023-06-19T07:13:02;3.45;;;1.50;;
19059;SDS011;9663;48.996;8.334;2023-06-19T07:15:28;4.68;;;1.77;;
19059;SDS011;9663;48.996;8.334;2023-06-19T07:17:54;3.00;;;1.50;;
19059;SDS011;9663;48.996;8.334;2023-06-19T07:20:21;3.35;;;1.45;;
19059;SDS011;9663;48.996;8.334;2023-06-19T07:22:47;3.35;;;1.50;;
19059;SDS011;9663;48.996;8.334;2023-06-19T07:25:16;3.17;;;1.60;;
19059;SDS011;9663;48.996;8.334;2023-06-19T07:27:42;3.13;;;1.60;;
19059;SDS011;9663;48.996;8.334;2023-06-19T07:30:09;3.25;;;1.60;;
19059;SDS011;9663;48.996;8.334;2023-06-19T07:32:36;3.40;;;1.50;;
19059;SDS011;9663;48.996;8.334;2023-06-19T07:35:02;3.58;;;1.55;;
19059;SDS011;9663;48.996;8.334;2023-06-19T07:37:29;3.13;;;1.58;;
19059;SDS011;9663;48.996;8.334;2023-06-19T07:39:55;3.22;;;1.50;;
19059;SDS011;9663;48.996;8.334;2023-06-19T07:42:21;3.55;;;1.60;;
19059;SDS011;9663;48.996;8.334;2023-06-19T07:44:47;2.92;;;1.42;;
19059;SDS011;9663;48.996;8.334;2023-06-19T07:47:13;3.50;;;1.67;;
19059;SDS011;9663;48.996;8.334;2023-06-19T07:49:43;3.33;;;1.48;;
19059;SDS011;9663;48.996;8.334;2023-06-19T07:52:08;3.70;;;1.60;;
19059;SDS011;9663;48.996;8.334;2023-06-19T07:54:34;3.45;;;1.83;;
19059;SDS011;9663;48.996;8.334;2023-06-19T07:57:00;3.53;;;1.52;;
19059;SDS011;9663;48.996;8.334;2023-06-19T07:59:26;3.22;;;1.50;;
19059;SDS011;9663;48.996;8.334;2023-06-19T08:01:52;2.92;;;1.40;;
19059;SDS011;9663;48.996;8.334;2023-06-19T08:04:17;3.38;;;1.73;;
19059;SDS011;9663;48.996;8.334;2023-06-19T08:06:43;3.40;;;1.60;;
19059;SDS011;9663;48.996;8.334;2023-06-19T08:09:09;3.50;;;1.58;;
19059;SDS011;9663;48.996;8.334;2023-06-19T08:11:34;4.13;;;1.80;;
19059;SDS011;9663;48.996;8.334;2023-06-19T08:14:02;3.35;;;1.70;;
19059;SDS011;9663;48.996;8.334;2023-06-19T08:16:28;3.50;;;1.60;;
19059;SDS011;9663;48.996;8.334;2023-06-19T08:18:53;4.40;;;2.03;;
19059;SDS011;9663;48.996;8.334;2023-06-19T08:21:19;3.90;;;1.92;;
19059;SDS011;9663;48.996;8.334;2023-06-19T08:23:46;4.18;;;2.00;;
19059;SDS011;9663;48.996;8.334;2023-06-19T08:26:12;3.45;;;1.80;;
19059;SDS011;9663;48.996;8.334;2023-06-19T08:28:38;4.20;;;1.95;;
19059;SDS011;9663;48.996;8.334;2023-06-19T08:31:06;3.80;;;1.95;;
19059;SDS011;9663;48.996;8.334;2023-06-19T08:33:33;3.58;;;2.00;;
19059;SDS011;9663;48.996;8.334;2023-06-19T08:36:00;3.97;;;2.00;;
19059;SDS011;9663;48.996;8.334;2023-06-19T08:38:26;3.92;;;1.92;;
19059;SDS011;9663;48.996;8.334;2023-06-19T08:40:51;3.90;;;2.22;;
19059;SDS011;9663;48.996;8.334;2023-06-19T08:43:20;4.03;;;2.20;;
19059;SDS011;9663;48.996;8.334;2023-06-19T08:46:06;4.68;;;1.70;;
19059;SDS011;9663;48.996;8.334;2023-06-19T08:48:36;4.18;;;2.28;;
19059;SDS011;9663;48.996;8.334;2023-06-19T08:51:04;4.53;;;2.30;;
19059;SDS011;9663;48.996;8.334;2023-06-19T08:53:33;4.38;;;2.40;;
19059;SDS011;9663;48.996;8.334;2023-06-19T08:56:02;4.75;;;1.90;;
19059;SDS011;9663;48.996;8.334;2023-06-19T08:58:28;4.15;;;2.05;;
19059;SDS011;9663;48.996;8.334;2023-06-19T09:00:54;3.95;;;1.90;;
19059;SDS011;9663;48.996;8.334;2023-06-19T09:03:24;4.72;;;2.42;;
19059;SDS011;9663;48.996;8.334;2023-06-19T09:05:49;4.32;;;2.20;;
19059;SDS011;9663;48.996;8.334;2023-06-19T09:08:16;4.00;;;2.22;;
19059;SDS011;9663;48.996;8.334;2023-06-19T09:10:59;5.00;;;2.53;;
19059;SDS011;9663;48.996;8.334;2023-06-19T09:13:27;4.40;;;2.22;;
19059;SDS011;9663;48.996;8.334;2023-06-19T09:15:58;3.65;;;2.15;;
19059;SDS011;9663;48.996;8.334;2023-06-19T09:18:24;4.22;;;2.33;;
19059;SDS011;9663;48.996;8.334;2023-06-19T09:20:52;4.50;;;2.70;;
19059;SDS011;9663;48.996;8.334;2023-06-19T09:23:19;3.75;;;2.05;;
19059;SDS011;9663;48.996;8.334;2023-06-19T09:25:51;3.85;;;2.00;;
19059;SDS011;9663;48.996;8.334;2023-06-19T09:28:25;3.65;;;1.80;;
19059;SDS011;9663;48.996;8.334;2023-06-19T09:33:27;4.07;;;2.20;;
19059;SDS011;9663;48.996;8.334;2023-06-19T09:35:55;3.80;;;2.00;;
19059;SDS011;9663;48.996;8.334;2023-06-19T09:38:24;4.25;;;2.15;;
19059;SDS011;9663;48.996;8.334;2023-06-19T09:40:52;3.70;;;1.85;;
19059;SDS011;9663;48.996;8.334;2023-06-19T09:43:20;3.65;;;1.98;;
19059;SDS011;9663;48.996;8.334;2023-06-19T09:45:50;4.00;;;2.03;;
19059;SDS011;9663;48.996;8.334;2023-06-19T09:48:23;3.40;;;1.80;;
19059;SDS011;9663;48.996;8.334;2023-06-19T09:51:10;3.30;;;1.77;;
19059;SDS011;9663;48.996;8.334;2023-06-19T09:53:55;3.95;;;2.17;;
19059;SDS011;9663;48.996;8.334;2023-06-19T09:56:24;3.92;;;2.10;;
19059;SDS011;9663;48.996;8.334;2023-06-19T09:58:51;3.70;;;2.05;;
19059;SDS011;9663;48.996;8.334;2023-06-19T10:01:21;3.08;;;1.60;;
19059;SDS011;9663;48.996;8.334;2023-06-19T10:03:48;3.72;;;1.77;;
19059;SDS011;9663;48.996;8.334;2023-06-19T10:06:14;3.70;;;2.20;;
19059;SDS011;9663;48.996;8.334;2023-06-19T10:08:42;3.90;;;2.00;;
19059;SDS011;9663;48.996;8.334;2023-06-19T10:11:09;5.60;;;2.25;;
19059;SDS011;9663;48.996;8.334;2023-06-19T10:13:37;3.97;;;2.03;;
19059;SDS011;9663;48.996;8.334;2023-06-19T10:16:06;3.10;;;1.70;;
19059;SDS011;9663;48.996;8.334;2023-06-19T10:18:47;3.65;;;1.90;;
19059;SDS011;9663;48.996;8.334;2023-06-19T10:21:19;4.00;;;2.10;;
19059;SDS011;9663;48.996;8.334;2023-06-19T10:23:56;4.90;;;2.40;;
19059;SDS011;9663;48.996;8.334;2023-06-19T10:26:33;4.65;;;2.00;;
19059;SDS011;9663;48.996;8.334;2023-06-19T10:28:59;4.13;;;2.10;;
19059;SDS011;9663;48.996;8.334;2023-06-19T10:31:26;3.75;;;1.92;;
19059;SDS011;9663;48.996;8.334;2023-06-19T10:33:53;3.80;;;1.88;;
19059;SDS011;9663;48.996;8.334;2023-06-19T10:36:20;3.97;;;2.30;;
19059;SDS011;9663;48.996;8.334;2023-06-19T10:38:50;4.82;;;2.05;;
19059;SDS011;9663;48.996;8.334;2023-06-19T10:43:55;4.30;;;2.20;;
19059;SDS011;9663;48.996;8.334;2023-06-19T10:46:23;4.00;;;2.10;;
19059;SDS011;9663;48.996;8.334;2023-06-19T10:48:54;3.70;;;1.80;;
19059;SDS011;9663;48.996;8.334;2023-06-19T10:51:24;3.60;;;1.80;;
19059;SDS011;9663;48.996;8.334;2023-06-19T10:53:52;4.28;;;2.30;;
19059;SDS011;9663;48.996;8.334;2023-06-19T10:56:20;3.72;;;2.08;;
19059;SDS011;9663;48.996;8.334;2023-06-19T10:58:48;3.67;;;2.00;;
19059;SDS011;9663;48.996;8.334;2023-06-19T11:01:21;3.67;;;1.92;;
19059;SDS011;9663;48.996;8.334;2023-06-19T11:03:47;3.88;;;2.00;;
19059;SDS011;9663;48.996;8.334;2023-06-19T11:06:19;3.95;;;1.90;;
19059;SDS011;9663;48.996;8.334;2023-06-19T11:08:50;3.60;;;2.00;;
19059;SDS011;9663;48.996;8.334;2023-06-19T11:11:17;3.75;;;2.13;;
19059;SDS011;9663;48.996;8.334;2023-06-19T11:13:45;3.70;;;2.20;;
19059;SDS011;9663;48.996;8.334;2023-06-19T11:16:10;3.80;;;1.98;;
19059;SDS011;9663;48.996;8.334;2023-06-19T11:18:39;3.65;;;2.00;;
19059;SDS011;9663;48.996;8.334;2023-06-19T11:21:04;4.07;;;2.25;;
19059;SDS011;9663;48.996;8.334;2023-06-19T11:23:30;3.70;;;2.00;;
19059;SDS011;9663;48.996;8.334;2023-06-19T11:26:05;4.72;;;2.22;;
19059;SDS011;9663;48.996;8.334;2023-06-19T11:28:32;3.75;;;2.13;;
19059;SDS011;9663;48.996;8.334;2023-06-19T11:30:58;3.58;;;2.13;;
19059;SDS011;9663;48.996;8.334;2023-06-19T11:33:28;3.80;;;2.20;;
19059;SDS011;9663;48.996;8.334;2023-06-19T11:35:58;4.20;;;2.05;;
19059;SDS011;9663;48.996;8.334;2023-06-19T11:38:26;3.85;;;2.03;;
19059;SDS011;9663;48.996;8.334;2023-06-19T11:40:53;3.60;;;1.98;;
19059;SDS011;9663;48.996;8.334;2023-06-19T11:43:27;4.05;;;1.98;;
19059;SDS011;9663;48.996;8.334;2023-06-19T11:46:03;3.60;;;2.03;;
19059;SDS011;9663;48.996;8.334;2023-06-19T11:48:30;3.47;;;1.90;;
19059;SDS011;9663;48.996;8.334;2023-06-19T11:50:57;3.80;;;2.13;;
19059;SDS011;9663;48.996;8.334;2023-06-19T11:53:23;3.53;;;1.90;;
19059;SDS011;9663;48.996;8.334;2023-06-19T11:55:50;3.42;;;1.92;;
19059;SDS011;9663;48.996;8.334;2023-06-19T11:58:16;3.60;;;1.80;;
19059;SDS011;9663;48.996;8.334;2023-06-19T12:00:43;3.58;;;1.95;;
19059;SDS011;9663;48.996;8.334;2023-06-19T12:03:09;4.30;;;1.95;;
19059;SDS011;9663;48.996;8.334;2023-06-19T12:05:35;3.80;;;2.05;;
19059;SDS011;9663;48.996;8.334;2023-06-19T12:08:02;3.60;;;1.83;;
19059;SDS011;9663;48.996;8.334;2023-06-19T12:10:29;3.95;;;2.00;;
19059;SDS011;9663;48.996;8.334;2023-06-19T12:12:59;3.92;;;2.00;;
19059;SDS011;9663;48.996;8.334;2023-06-19T12:15:25;2.75;;;1.50;;
19059;SDS011;9663;48.996;8.334;2023-06-19T12:17:51;3.15;;;1.65;;
19059;SDS011;9663;48.996;8.334;2023-06-19T12:20:17;3.60;;;2.00;;
19059;SDS011;9663;48.996;8.334;2023-06-19T12:22:44;3.50;;;1.77;;
19059;SDS011;9663;48.996;8.334;2023-06-19T12:25:09;3.58;;;1.65;;
19059;SDS011;9663;48.996;8.334;2023-06-19T12:27:36;3.10;;;1.50;;
19059;SDS011;9663;48.996;8.334;2023-06-19T12:30:06;3.70;;;1.88;;
19059;SDS011;9663;48.996;8.334;2023-06-19T12:32:33;3.45;;;1.75;;
19059;SDS011;9663;48.996;8.334;2023-06-19T12:34:59;4.65;;;1.77;;
19059;SDS011;9663;48.996;8.334;2023-06-19T12:37:24;3.88;;;1.90;;
19059;SDS011;9663;48.996;8.334;2023-06-19T12:39:50;3.50;;;1.70;;
19059;SDS011;9663;48.996;8.334;2023-06-19T12:42:16;3.38;;;1.73;;
19059;SDS011;9663;48.996;8.334;2023-06-19T12:44:42;3.65;;;1.85;;
19059;SDS011;9663;48.996;8.334;2023-06-19T12:47:11;5.00;;;1.90;;
19059;SDS011;9663;48.996;8.334;2023-06-19T12:49:37;3.60;;;1.80;;
19059;SDS011;9663;48.996;8.334;2023-06-19T12:52:03;3.10;;;1.70;;
19059;SDS011;9663;48.996;8.334;2023-06-19T12:54:29;3.80;;;1.60;;
19059;SDS011;9663;48.996;8.334;2023-06-19T12:56:55;4.00;;;2.03;;
19059;SDS011;9663;48.996;8.334;2023-06-19T12:59:21;4.43;;;2.35;;
19059;SDS011;9663;48.996;8.334;2023-06-19T13:01:46;3.35;;;1.85;;
19059;SDS011;9663;48.996;8.334;2023-06-19T13:04:12;3.90;;;2.00;;
19059;SDS011;9663;48.996;8.334;2023-06-19T13:06:38;3.63;;;1.92;;
19059;SDS011;9663;48.996;8.334;2023-06-19T13:09:04;4.15;;;1.77;;
19059;SDS011;9663;48.996;8.334;2023-06-19T13:11:31;3.17;;;1.67;;
19059;SDS011;9663;48.996;8.334;2023-06-19T13:13:59;3.42;;;1.67;;
19059;SDS011;9663;48.996;8.334;2023-06-19T13:16:25;4.47;;;1.85;;
19059;SDS011;9663;48.996;8.334;2023-06-19T13:18:51;4.32;;;2.00;;
19059;SDS011;9663;48.996;8.334;2023-06-19T13:21:17;3.67;;;1.65;;
19059;SDS011;9663;48.996;8.334;2023-06-19T13:23:43;3.45;;;1.88;;
19059;SDS011;9663;48.996;8.334;2023-06-19T13:26:09;3.40;;;1.85;;
19059;SDS011;9663;48.996;8.334;2023-06-19T13:28:35;4.05;;;1.73;;
19059;SDS011;9663;48.996;8.334;2023-06-19T13:31:01;3.45;;;1.83;;
19059;SDS011;9663;48.996;8.334;2023-06-19T13:33:28;3.50;;;1.80;;
19059;SDS011;9663;48.996;8.334;2023-06-19T13:35:53;6.93;;;2.58;;
19059;SDS011;9663;48.996;8.334;2023-06-19T13:38:19;3.83;;;1.70;;
19059;SDS011;9663;48.996;8.334;2023-06-19T13:40:46;3.60;;;1.90;;
19059;SDS011;9663;48.996;8.334;2023-06-19T13:43:12;3.83;;;1.80;;
19059;SDS011;9663;48.996;8.334;2023-06-19T13:45:38;3.28;;;1.70;;
19059;SDS011;9663;48.996;8.334;2023-06-19T13:48:05;4.40;;;2.13;;
19059;SDS011;9663;48.996;8.334;2023-06-19T13:50:31;3.40;;;1.73;;
19059;SDS011;9663;48.996;8.334;2023-06-19T13:52:57;3.22;;;1.58;;
19059;SDS011;9663;48.996;8.334;2023-06-19T13:55:24;3.70;;;1.75;;
19059;SDS011;9663;48.996;8.334;2023-06-19T13:57:50;3.63;;;1.75;;
19059;SDS011;9663;48.996;8.334;2023-06-19T14:00:15;3.72;;;2.03;;
19059;SDS011;9663;48.996;8.334;2023-06-19T14:02:41;3.67;;;1.98;;
19059;SDS011;9663;48.996;8.334;2023-06-19T14:05:07;3.53;;;1.77;;
19059;SDS011;9663;48.996;8.334;2023-06-19T14:07:34;3.70;;;2.08;;
19059;SDS011;9663;48.996;8.334;2023-06-19T14:10:01;3.45;;;1.80;;
19059;SDS011;9663;48.996;8.334;2023-06-19T14:12:29;3.40;;;1.80;;
19059;SDS011;9663;48.996;8.334;2023-06-19T14:14:55;3.22;;;1.58;;
19059;SDS011;9663;48.996;8.334;2023-06-19T14:17:21;3.13;;;1.70;;
19059;SDS011;9663;48.996;8.334;2023-06-19T14:19:48;3.17;;;1.65;;
19059;SDS011;9663;48.996;8.334;2023-06-19T14:22:15;3.72;;;1.85;;
19059;SDS011;9663;48.996;8.334;2023-06-19T14:24:41;3.28;;;1.60;;
19059;SDS011;9663;48.996;8.334;2023-06-19T14:27:07;3.88;;;1.50;;
19059;SDS011;9663;48.996;8.334;2023-06-19T14:29:32;3.72;;;1.67;;
19059;SDS011;9663;48.996;8.334;2023-06-19T14:31:58;3.20;;;1.60;;
19059;SDS011;9663;48.996;8.334;2023-06-19T14:34:24;3.50;;;1.80;;
19059;SDS011;9663;48.996;8.334;2023-06-19T14:36:50;3.30;;;1.63;;
19059;SDS011;9663;48.996;8.334;2023-06-19T14:39:15;3.80;;;1.90;;
19059;SDS011;9663;48.996;8.334;2023-06-19T14:41:41;3.42;;;1.85;;
19059;SDS011;9663;48.996;8.334;2023-06-19T14:44:07;3.97;;;2.03;;
19059;SDS011;9663;48.996;8.334;2023-06-19T14:46:33;4.05;;;1.90;;
19059;SDS011;9663;48.996;8.334;2023-06-19T14:49:04;3.80;;;2.00;;
19059;SDS011;9663;48.996;8.334;2023-06-19T14:51:37;3.45;;;1.80;;
19059;SDS011;9663;48.996;8.334;2023-06-19T14:54:03;3.90;;;2.00;;
19059;SDS011;9663;48.996;8.334;2023-06-19T14:56:29;4.00;;;1.80;;
19059;SDS011;9663;48.996;8.334;2023-06-19T14:58:55;3.90;;;1.75;;
19059;SDS011;9663;48.996;8.334;2023-06-19T15:01:20;3.35;;;1.73;;
19059;SDS011;9663;48.996;8.334;2023-06-19T15:03:46;3.75;;;1.58;;
19059;SDS011;9663;48.996;8.334;2023-06-19T15:06:12;4.82;;;1.90;;
19059;SDS011;9663;48.996;8.334;2023-06-19T15:08:37;3.67;;;1.95;;
19059;SDS011;9663;48.996;8.334;2023-06-19T15:11:04;3.25;;;1.88;;
19059;SDS011;9663;48.996;8.334;2023-06-19T15:13:30;3.58;;;2.00;;